sensor_id;sensor_type;location;lat;lon;timestamp;P1;durP1;ratioP1;P2;durP2;ratioP2
31087;SDS011;17745;55.914;37.554;2023-07-16T08:57:17;7.60;;;4.85;;
31087;SDS011;17745;55.914;37.554;2023-07-16T16:39:54;4.97;;;3.22;;
31087;SDS011;17745;55.914;37.554;2023-07-16T16:45:37;5.60;;;3.70;;
31087;SDS011;17745;55.914;37.554;2023-07-16T16:48:13;5.78;;;3.62;;
31087;SDS011;17745;55.914;37.554;2023-07-16T16:58:10;5.07;;;3.10;;
31087;SDS011;17745;55.914;37.554;2023-07-16T17:00:55;6.43;;;3.50;;
31087;SDS011;17745;55.914;37.554;2023-07-16T17:03:36;5.10;;;3.30;;
31087;SDS011;17745;55.914;37.554;2023-07-16T17:06:07;6.07;;;3.95;;
31087;SDS011;17745;55.914;37.554;2023-07-16T17:09:01;6.62;;;3.97;;
31087;SDS011;17745;55.914;37.554;2023-07-16T17:18:59;10.05;;;4.70;;
31087;SDS011;17745;55.914;37.554;2023-07-16T17:22:23;9.55;;;4.10;;
31087;SDS011;17745;55.914;37.554;2023-07-16T17:25:44;10.25;;;4.43;;
31087;SDS011;17745;55.914;37.554;2023-07-16T17:29:35;7.95;;;4.18;;
31087;SDS011;17745;55.914;37.554;2023-07-16T17:32:56;7.80;;;4.40;;
31087;SDS011;17745;55.914;37.554;2023-07-16T17:36:11;8.48;;;4.87;;
31087;SDS011;17745;55.914;37.554;2023-07-16T17:42:00;11.75;;;5.43;;
31087;SDS011;17745;55.914;37.554;2023-07-16T17:44:44;10.05;;;4.87;;
31087;SDS011;17745;55.914;37.554;2023-07-16T17:47:35;9.85;;;5.10;;
31087;SDS011;17745;55.914;37.554;2023-07-16T17:50:13;9.07;;;5.15;;
31087;SDS011;17745;55.914;37.554;2023-07-16T18:24:23;11.95;;;6.43;;
31087;SDS011;17745;55.914;37.554;2023-07-16T18:27:01;10.85;;;7.25;;
31087;SDS011;17745;55.914;37.554;2023-07-16T18:29:43;9.65;;;6.57;;
31087;SDS011;17745;55.914;37.554;2023-07-16T18:36:27;9.40;;;6.25;;
31087;SDS011;17745;55.914;37.554;2023-07-16T18:40:14;13.93;;;6.93;;
31087;SDS011;17745;55.914;37.554;2023-07-16T18:43:01;12.20;;;7.32;;
31087;SDS011;17745;55.914;37.554;2023-07-16T18:45:48;12.65;;;6.57;;
31087;SDS011;17745;55.914;37.554;2023-07-16T18:48:50;11.40;;;6.55;;
31087;SDS011;17745;55.914;37.554;2023-07-16T18:55:03;12.35;;;7.65;;
31087;SDS011;17745;55.914;37.554;2023-07-16T19:05:37;12.35;;;8.55;;
31087;SDS011;17745;55.914;37.554;2023-07-16T19:27:53;10.95;;;6.90;;
31087;SDS011;17745;55.914;37.554;2023-07-16T19:30:50;16.00;;;7.43;;
31087;SDS011;17745;55.914;37.554;2023-07-16T19:33:54;13.25;;;7.07;;
31087;SDS011;17745;55.914;37.554;2023-07-16T19:37:43;14.52;;;7.95;;
31087;SDS011;17745;55.914;37.554;2023-07-16T19:44:23;13.30;;;6.93;;
31087;SDS011;17745;55.914;37.554;2023-07-16T19:47:22;11.65;;;7.43;;
31087;SDS011;17745;55.914;37.554;2023-07-16T19:50:46;12.15;;;7.35;;
31087;SDS011;17745;55.914;37.554;2023-07-16T19:53:56;12.07;;;7.20;;
31087;SDS011;17745;55.914;37.554;2023-07-16T20:00:10;12.95;;;7.50;;
31087;SDS011;17745;55.914;37.554;2023-07-16T20:02:49;13.35;;;7.28;;
31087;SDS011;17745;55.914;37.554;2023-07-16T20:05:40;14.43;;;7.78;;
31087;SDS011;17745;55.914;37.554;2023-07-16T20:08:28;24.73;;;10.00;;
31087;SDS011;17745;55.914;37.554;2023-07-16T20:11:06;18.60;;;8.98;;
31087;SDS011;17745;55.914;37.554;2023-07-16T20:24:12;12.77;;;8.52;;
31087;SDS011;17745;55.914;37.554;2023-07-16T20:26:51;13.62;;;7.93;;
31087;SDS011;17745;55.914;37.554;2023-07-16T20:29:30;11.80;;;8.18;;
31087;SDS011;17745;55.914;37.554;2023-07-16T20:32:19;16.12;;;8.15;;
31087;SDS011;17745;55.914;37.554;2023-07-16T20:35:10;13.05;;;8.43;;
31087;SDS011;17745;55.914;37.554;2023-07-16T20:40:53;18.00;;;9.55;;
31087;SDS011;17745;55.914;37.554;2023-07-16T20:43:23;17.50;;;9.30;;
31087;SDS011;17745;55.914;37.554;2023-07-16T20:45:54;20.40;;;8.85;;
31087;SDS011;17745;55.914;37.554;2023-07-16T20:48:54;17.08;;;8.80;;
31087;SDS011;17745;55.914;37.554;2023-07-16T20:51:41;16.05;;;8.30;;
31087;SDS011;17745;55.914;37.554;2023-07-16T20:54:18;12.55;;;8.27;;
31087;SDS011;17745;55.914;37.554;2023-07-16T20:56:53;19.05;;;9.13;;
31087;SDS011;17745;55.914;37.554;2023-07-16T20:59:27;12.27;;;8.20;;
31087;SDS011;17745;55.914;37.554;2023-07-16T21:02:34;15.07;;;8.52;;
31087;SDS011;17745;55.914;37.554;2023-07-16T21:05:59;13.68;;;8.88;;
31087;SDS011;17745;55.914;37.554;2023-07-16T21:09:05;18.33;;;9.40;;
31087;SDS011;17745;55.914;37.554;2023-07-16T21:11:39;19.70;;;9.23;;
31087;SDS011;17745;55.914;37.554;2023-07-16T21:14:16;15.02;;;9.60;;
31087;SDS011;17745;55.914;37.554;2023-07-16T21:16:48;14.45;;;8.98;;
31087;SDS011;17745;55.914;37.554;2023-07-16T21:19:35;20.05;;;10.35;;
31087;SDS011;17745;55.914;37.554;2023-07-16T21:22:13;16.87;;;9.57;;
31087;SDS011;17745;55.914;37.554;2023-07-16T21:24:49;20.48;;;10.23;;
31087;SDS011;17745;55.914;37.554;2023-07-16T21:27:56;18.45;;;10.32;;
31087;SDS011;17745;55.914;37.554;2023-07-16T21:30:59;14.95;;;10.35;;
31087;SDS011;17745;55.914;37.554;2023-07-16T21:33:31;18.42;;;10.48;;
31087;SDS011;17745;55.914;37.554;2023-07-16T21:36:11;16.40;;;10.18;;
31087;SDS011;17745;55.914;37.554;2023-07-16T21:38:44;20.15;;;10.35;;
31087;SDS011;17745;55.914;37.554;2023-07-16T21:41:25;14.18;;;9.73;;
31087;SDS011;17745;55.914;37.554;2023-07-16T21:43:57;12.18;;;9.02;;
31087;SDS011;17745;55.914;37.554;2023-07-16T21:46:32;16.10;;;9.45;;
31087;SDS011;17745;55.914;37.554;2023-07-16T21:49:03;15.05;;;9.82;;
31087;SDS011;17745;55.914;37.554;2023-07-16T21:51:47;14.15;;;9.45;;
31087;SDS011;17745;55.914;37.554;2023-07-16T21:54:32;16.83;;;9.57;;
